Guysie, Georgia
Current Conditions -  °F | °C
As of 3:53 PM on Thursday 23 Oct 2014 (Local Time) from KAMG Reporting Station
Clear Clear  
Wind Chill: 73°   Ceiling: Unl
Heat Index: 73°   Visibility: 10mi
Dew Point: 42°   Wind: 5mph
Humidity: 33%   Direction: 140°SE
Pressure: 30"   Gusts: NA
Location:  31.5537°N, 82.4528°W
Report Text: KAMG 231953Z AUTO 14004KT 10SM CLR 23/06 A3000 RMK AO2 SLP159 T02280056
Loading
Personal Weather Stations






























Interactive Weather Map
Tropical Storm Tracking
New forecast layout! Learn more

10-Day Weather Forecast

Advertisements
Track Severe Weather on mobile